sensor_id;sensor_type;location;lat;lon;timestamp;P1;durP1;ratioP1;P2;durP2;ratioP2
3901;SDS011;1966;49.908;9.156;2024-02-21T00:04:16;9.30;;;4.53;;
3901;SDS011;1966;49.908;9.156;2024-02-21T00:09:15;14.10;;;5.67;;
3901;SDS011;1966;49.908;9.156;2024-02-21T00:14:17;17.23;;;6.40;;
3901;SDS011;1966;49.908;9.156;2024-02-21T00:19:17;13.53;;;5.93;;
3901;SDS011;1966;49.908;9.156;2024-02-21T00:24:16;14.77;;;5.30;;
3901;SDS011;1966;49.908;9.156;2024-02-21T00:29:15;10.40;;;5.73;;
3901;SDS011;1966;49.908;9.156;2024-02-21T00:34:16;10.93;;;5.73;;
3901;SDS011;1966;49.908;9.156;2024-02-21T00:39:15;10.00;;;5.13;;
3901;SDS011;1966;49.908;9.156;2024-02-21T00:44:14;10.10;;;5.73;;
3901;SDS011;1966;49.908;9.156;2024-02-21T00:49:16;8.97;;;5.10;;
3901;SDS011;1966;49.908;9.156;2024-02-21T00:54:15;9.37;;;5.60;;
3901;SDS011;1966;49.908;9.156;2024-02-21T00:59:15;16.47;;;6.50;;
3901;SDS011;1966;49.908;9.156;2024-02-21T01:04:14;14.10;;;6.07;;
3901;SDS011;1966;49.908;9.156;2024-02-21T01:09:15;11.40;;;6.37;;
3901;SDS011;1966;49.908;9.156;2024-02-21T01:14:14;15.77;;;6.30;;
3901;SDS011;1966;49.908;9.156;2024-02-21T01:19:13;10.47;;;5.93;;
3901;SDS011;1966;49.908;9.156;2024-02-21T01:24:12;12.80;;;6.70;;
3901;SDS011;1966;49.908;9.156;2024-02-21T01:29:13;20.03;;;7.83;;
3901;SDS011;1966;49.908;9.156;2024-02-21T01:34:12;11.87;;;6.57;;
3901;SDS011;1966;49.908;9.156;2024-02-21T01:39:12;16.77;;;7.73;;
3901;SDS011;1966;49.908;9.156;2024-02-21T01:44:11;21.17;;;7.30;;
3901;SDS011;1966;49.908;9.156;2024-02-21T01:49:11;16.10;;;6.97;;
3901;SDS011;1966;49.908;9.156;2024-02-21T01:54:11;13.53;;;6.33;;
3901;SDS011;1966;49.908;9.156;2024-02-21T01:59:11;13.67;;;6.83;;
3901;SDS011;1966;49.908;9.156;2024-02-21T02:04:13;12.37;;;5.70;;
3901;SDS011;1966;49.908;9.156;2024-02-21T02:09:12;12.47;;;6.70;;
3901;SDS011;1966;49.908;9.156;2024-02-21T02:14:12;16.83;;;6.60;;
3901;SDS011;1966;49.908;9.156;2024-02-21T02:19:13;14.13;;;6.73;;
3901;SDS011;1966;49.908;9.156;2024-02-21T02:24:15;9.57;;;6.10;;
3901;SDS011;1966;49.908;9.156;2024-02-21T02:29:14;11.90;;;5.10;;
3901;SDS011;1966;49.908;9.156;2024-02-21T02:34:14;12.07;;;5.90;;
3901;SDS011;1966;49.908;9.156;2024-02-21T02:39:15;8.40;;;5.83;;
3901;SDS011;1966;49.908;9.156;2024-02-21T02:44:14;8.53;;;5.60;;
3901;SDS011;1966;49.908;9.156;2024-02-21T02:49:14;13.00;;;6.00;;
3901;SDS011;1966;49.908;9.156;2024-02-21T02:54:13;10.10;;;6.60;;
3901;SDS011;1966;49.908;9.156;2024-02-21T02:59:14;15.83;;;6.90;;
3901;SDS011;1966;49.908;9.156;2024-02-21T03:04:13;14.90;;;6.23;;
3901;SDS011;1966;49.908;9.156;2024-02-21T03:09:12;11.53;;;6.87;;
3901;SDS011;1966;49.908;9.156;2024-02-21T03:14:14;17.77;;;7.23;;
3901;SDS011;1966;49.908;9.156;2024-02-21T03:19:14;14.30;;;6.20;;
3901;SDS011;1966;49.908;9.156;2024-02-21T03:24:13;17.90;;;6.07;;
3901;SDS011;1966;49.908;9.156;2024-02-21T03:29:12;10.57;;;6.00;;
3901;SDS011;1966;49.908;9.156;2024-02-21T03:34:13;8.80;;;5.73;;
3901;SDS011;1966;49.908;9.156;2024-02-21T03:39:12;8.33;;;5.63;;
3901;SDS011;1966;49.908;9.156;2024-02-21T03:44:11;7.50;;;5.63;;
3901;SDS011;1966;49.908;9.156;2024-02-21T03:49:12;8.30;;;4.97;;
3901;SDS011;1966;49.908;9.156;2024-02-21T03:54:11;10.37;;;5.60;;
3901;SDS011;1966;49.908;9.156;2024-02-21T03:59:11;10.57;;;6.03;;
3901;SDS011;1966;49.908;9.156;2024-02-21T04:04:10;10.30;;;6.00;;
3901;SDS011;1966;49.908;9.156;2024-02-21T04:09:11;9.40;;;5.00;;
3901;SDS011;1966;49.908;9.156;2024-02-21T04:14:10;11.57;;;6.40;;
3901;SDS011;1966;49.908;9.156;2024-02-21T04:19:10;9.57;;;5.40;;
3901;SDS011;1966;49.908;9.156;2024-02-21T04:24:10;11.47;;;6.43;;
3901;SDS011;1966;49.908;9.156;2024-02-21T04:29:10;10.07;;;5.87;;
3901;SDS011;1966;49.908;9.156;2024-02-21T04:34:09;15.57;;;7.87;;
3901;SDS011;1966;49.908;9.156;2024-02-21T04:39:08;16.03;;;6.90;;
3901;SDS011;1966;49.908;9.156;2024-02-21T04:44:09;10.90;;;6.33;;
3901;SDS011;1966;49.908;9.156;2024-02-21T04:49:08;14.80;;;7.17;;
3901;SDS011;1966;49.908;9.156;2024-02-21T04:54:07;13.87;;;7.47;;
3901;SDS011;1966;49.908;9.156;2024-02-21T04:59:07;14.50;;;6.90;;
3901;SDS011;1966;49.908;9.156;2024-02-21T05:04:07;12.80;;;7.33;;
3901;SDS011;1966;49.908;9.156;2024-02-21T05:09:06;16.37;;;7.63;;
3901;SDS011;1966;49.908;9.156;2024-02-21T05:14:06;11.47;;;7.33;;
3901;SDS011;1966;49.908;9.156;2024-02-21T05:19:05;11.03;;;6.77;;
3901;SDS011;1966;49.908;9.156;2024-02-21T05:24:06;12.27;;;7.00;;
3901;SDS011;1966;49.908;9.156;2024-02-21T05:29:05;11.23;;;6.37;;
3901;SDS011;1966;49.908;9.156;2024-02-21T05:34:05;8.93;;;5.97;;
3901;SDS011;1966;49.908;9.156;2024-02-21T05:39:04;12.07;;;6.70;;
3901;SDS011;1966;49.908;9.156;2024-02-21T05:44:05;11.97;;;7.20;;
3901;SDS011;1966;49.908;9.156;2024-02-21T05:49:04;9.13;;;6.80;;
3901;SDS011;1966;49.908;9.156;2024-02-21T05:54:04;8.63;;;6.27;;
3901;SDS011;1966;49.908;9.156;2024-02-21T05:59:06;8.93;;;6.63;;
3901;SDS011;1966;49.908;9.156;2024-02-21T06:04:05;15.40;;;7.77;;
3901;SDS011;1966;49.908;9.156;2024-02-21T06:09:05;11.13;;;7.37;;
3901;SDS011;1966;49.908;9.156;2024-02-21T06:14:04;27.37;;;14.47;;
3901;SDS011;1966;49.908;9.156;2024-02-21T06:19:05;22.97;;;11.73;;
3901;SDS011;1966;49.908;9.156;2024-02-21T06:24:04;13.50;;;7.70;;
3901;SDS011;1966;49.908;9.156;2024-02-21T06:29:03;14.37;;;7.70;;
3901;SDS011;1966;49.908;9.156;2024-02-21T06:34:03;9.67;;;7.30;;
3901;SDS011;1966;49.908;9.156;2024-02-21T06:39:04;14.87;;;7.27;;
3901;SDS011;1966;49.908;9.156;2024-02-21T06:44:05;15.47;;;8.30;;
3901;SDS011;1966;49.908;9.156;2024-02-21T06:49:05;17.07;;;8.50;;
3901;SDS011;1966;49.908;9.156;2024-02-21T06:54:06;13.73;;;8.20;;
3901;SDS011;1966;49.908;9.156;2024-02-21T06:59:05;11.03;;;7.20;;
3901;SDS011;1966;49.908;9.156;2024-02-21T07:04:04;12.17;;;7.57;;
3901;SDS011;1966;49.908;9.156;2024-02-21T07:09:03;15.70;;;8.20;;
3901;SDS011;1966;49.908;9.156;2024-02-21T07:14:04;12.30;;;7.80;;
3901;SDS011;1966;49.908;9.156;2024-02-21T07:19:03;19.03;;;8.73;;
3901;SDS011;1966;49.908;9.156;2024-02-21T07:24:03;15.60;;;8.47;;
3901;SDS011;1966;49.908;9.156;2024-02-21T07:29:04;12.43;;;8.73;;
3901;SDS011;1966;49.908;9.156;2024-02-21T07:34:03;13.37;;;8.73;;
3901;SDS011;1966;49.908;9.156;2024-02-21T07:39:02;16.30;;;8.40;;
3901;SDS011;1966;49.908;9.156;2024-02-21T07:44:03;12.60;;;7.03;;
3901;SDS011;1966;49.908;9.156;2024-02-21T07:49:03;16.00;;;8.63;;
3901;SDS011;1966;49.908;9.156;2024-02-21T07:54:02;13.03;;;7.00;;
3901;SDS011;1966;49.908;9.156;2024-02-21T07:59:03;21.37;;;7.70;;
3901;SDS011;1966;49.908;9.156;2024-02-21T08:04:03;10.40;;;6.13;;
3901;SDS011;1966;49.908;9.156;2024-02-21T08:09:02;14.60;;;6.90;;
3901;SDS011;1966;49.908;9.156;2024-02-21T08:14:01;14.87;;;7.83;;
3901;SDS011;1966;49.908;9.156;2024-02-21T08:19:02;15.03;;;7.03;;
3901;SDS011;1966;49.908;9.156;2024-02-21T08:24:02;12.60;;;6.60;;
3901;SDS011;1966;49.908;9.156;2024-02-21T08:29:01;12.70;;;5.93;;
3901;SDS011;1966;49.908;9.156;2024-02-21T08:34:02;16.70;;;6.00;;
3901;SDS011;1966;49.908;9.156;2024-02-21T08:39:02;11.17;;;5.30;;
3901;SDS011;1966;49.908;9.156;2024-02-21T08:44:03;10.90;;;5.53;;
3901;SDS011;1966;49.908;9.156;2024-02-21T08:49:03;12.33;;;5.13;;
3901;SDS011;1966;49.908;9.156;2024-02-21T08:54:02;11.03;;;5.67;;
3901;SDS011;1966;49.908;9.156;2024-02-21T08:59:03;16.93;;;6.37;;
3901;SDS011;1966;49.908;9.156;2024-02-21T09:04:04;12.60;;;5.97;;
3901;SDS011;1966;49.908;9.156;2024-02-21T09:09:03;11.80;;;5.50;;
3901;SDS011;1966;49.908;9.156;2024-02-21T09:14:03;12.97;;;5.63;;
3901;SDS011;1966;49.908;9.156;2024-02-21T09:19:02;9.70;;;5.27;;
3901;SDS011;1966;49.908;9.156;2024-02-21T09:24:03;13.23;;;5.40;;
3901;SDS011;1966;49.908;9.156;2024-02-21T09:29:02;12.50;;;5.80;;
3901;SDS011;1966;49.908;9.156;2024-02-21T09:34:02;11.50;;;4.87;;
3901;SDS011;1966;49.908;9.156;2024-02-21T09:39:02;12.23;;;5.33;;
3901;SDS011;1966;49.908;9.156;2024-02-21T09:44:02;9.23;;;5.10;;
3901;SDS011;1966;49.908;9.156;2024-02-21T09:49:04;7.60;;;3.80;;
3901;SDS011;1966;49.908;9.156;2024-02-21T09:54:08;10.67;;;3.93;;
3901;SDS011;1966;49.908;9.156;2024-02-21T09:59:07;10.57;;;4.50;;
3901;SDS011;1966;49.908;9.156;2024-02-21T10:04:07;4.30;;;3.47;;
3901;SDS011;1966;49.908;9.156;2024-02-21T10:09:08;5.60;;;3.27;;
3901;SDS011;1966;49.908;9.156;2024-02-21T10:14:07;9.47;;;4.00;;
3901;SDS011;1966;49.908;9.156;2024-02-21T10:19:07;8.40;;;3.30;;
3901;SDS011;1966;49.908;9.156;2024-02-21T10:24:25;9.03;;;3.83;;
3901;SDS011;1966;49.908;9.156;2024-02-21T10:29:24;9.00;;;4.00;;
3901;SDS011;1966;49.908;9.156;2024-02-21T10:34:24;6.27;;;3.50;;
3901;SDS011;1966;49.908;9.156;2024-02-21T10:39:24;11.33;;;3.87;;
3901;SDS011;1966;49.908;9.156;2024-02-21T10:44:24;8.80;;;3.47;;
3901;SDS011;1966;49.908;9.156;2024-02-21T10:49:25;9.73;;;3.77;;
3901;SDS011;1966;49.908;9.156;2024-02-21T10:54:30;7.47;;;3.60;;
3901;SDS011;1966;49.908;9.156;2024-02-21T10:59:33;7.63;;;3.67;;
3901;SDS011;1966;49.908;9.156;2024-02-21T11:04:34;7.47;;;3.53;;
3901;SDS011;1966;49.908;9.156;2024-02-21T11:09:36;6.10;;;3.37;;
3901;SDS011;1966;49.908;9.156;2024-02-21T11:14:37;9.07;;;3.70;;
3901;SDS011;1966;49.908;9.156;2024-02-21T11:19:37;7.30;;;3.13;;
3901;SDS011;1966;49.908;9.156;2024-02-21T11:24:37;8.20;;;3.77;;
3901;SDS011;1966;49.908;9.156;2024-02-21T11:29:40;6.33;;;3.37;;
3901;SDS011;1966;49.908;9.156;2024-02-21T11:34:40;7.97;;;3.80;;
3901;SDS011;1966;49.908;9.156;2024-02-21T11:39:40;8.20;;;3.60;;
3901;SDS011;1966;49.908;9.156;2024-02-21T11:44:40;7.57;;;3.27;;
3901;SDS011;1966;49.908;9.156;2024-02-21T11:49:42;6.90;;;3.63;;
3901;SDS011;1966;49.908;9.156;2024-02-21T11:54:43;8.53;;;3.33;;
3901;SDS011;1966;49.908;9.156;2024-02-21T11:59:43;9.90;;;3.80;;
3901;SDS011;1966;49.908;9.156;2024-02-21T12:04:43;6.33;;;3.73;;
3901;SDS011;1966;49.908;9.156;2024-02-21T12:09:44;7.67;;;3.17;;
3901;SDS011;1966;49.908;9.156;2024-02-21T12:14:43;9.60;;;3.60;;
3901;SDS011;1966;49.908;9.156;2024-02-21T12:19:42;5.87;;;3.33;;
3901;SDS011;1966;49.908;9.156;2024-02-21T12:24:41;7.37;;;3.13;;
3901;SDS011;1966;49.908;9.156;2024-02-21T12:29:46;5.93;;;3.20;;
3901;SDS011;1966;49.908;9.156;2024-02-21T12:34:45;5.03;;;3.10;;
3901;SDS011;1966;49.908;9.156;2024-02-21T12:39:45;5.50;;;3.60;;
3901;SDS011;1966;49.908;9.156;2024-02-21T12:44:44;10.10;;;3.30;;
3901;SDS011;1966;49.908;9.156;2024-02-21T12:49:45;10.23;;;3.70;;
3901;SDS011;1966;49.908;9.156;2024-02-21T12:54:44;12.07;;;3.53;;
3901;SDS011;1966;49.908;9.156;2024-02-21T12:59:43;5.63;;;2.90;;
3901;SDS011;1966;49.908;9.156;2024-02-21T13:04:44;6.57;;;2.90;;
3901;SDS011;1966;49.908;9.156;2024-02-21T13:09:43;8.63;;;3.50;;
3901;SDS011;1966;49.908;9.156;2024-02-21T13:14:43;8.77;;;3.13;;
3901;SDS011;1966;49.908;9.156;2024-02-21T13:19:42;8.57;;;3.40;;
3901;SDS011;1966;49.908;9.156;2024-02-21T13:24:42;3.97;;;2.60;;
3901;SDS011;1966;49.908;9.156;2024-02-21T13:29:42;6.33;;;3.47;;
3901;SDS011;1966;49.908;9.156;2024-02-21T13:34:41;12.60;;;3.53;;
3901;SDS011;1966;49.908;9.156;2024-02-21T13:39:42;7.20;;;3.20;;
3901;SDS011;1966;49.908;9.156;2024-02-21T13:44:41;7.33;;;3.47;;
3901;SDS011;1966;49.908;9.156;2024-02-21T13:49:41;8.83;;;3.10;;
3901;SDS011;1966;49.908;9.156;2024-02-21T13:54:40;7.50;;;3.13;;
3901;SDS011;1966;49.908;9.156;2024-02-21T13:59:41;8.30;;;3.27;;
3901;SDS011;1966;49.908;9.156;2024-02-21T14:04:40;7.47;;;3.73;;
3901;SDS011;1966;49.908;9.156;2024-02-21T14:09:40;8.33;;;3.33;;
3901;SDS011;1966;49.908;9.156;2024-02-21T14:14:41;5.33;;;2.90;;
3901;SDS011;1966;49.908;9.156;2024-02-21T14:19:41;8.77;;;3.27;;
3901;SDS011;1966;49.908;9.156;2024-02-21T14:24:40;6.77;;;2.80;;
3901;SDS011;1966;49.908;9.156;2024-02-21T14:29:41;11.57;;;3.60;;
3901;SDS011;1966;49.908;9.156;2024-02-21T14:34:40;6.53;;;3.27;;
3901;SDS011;1966;49.908;9.156;2024-02-21T14:39:40;6.90;;;3.77;;
3901;SDS011;1966;49.908;9.156;2024-02-21T14:44:41;8.27;;;3.30;;
3901;SDS011;1966;49.908;9.156;2024-02-21T14:49:40;6.83;;;2.70;;
3901;SDS011;1966;49.908;9.156;2024-02-21T14:54:39;6.33;;;3.13;;
3901;SDS011;1966;49.908;9.156;2024-02-21T14:59:44;7.90;;;3.50;;
3901;SDS011;1966;49.908;9.156;2024-02-21T15:04:44;5.17;;;3.00;;
3901;SDS011;1966;49.908;9.156;2024-02-21T15:09:43;5.57;;;3.10;;
3901;SDS011;1966;49.908;9.156;2024-02-21T15:14:42;7.37;;;2.70;;
3901;SDS011;1966;49.908;9.156;2024-02-21T15:19:43;6.27;;;3.60;;
3901;SDS011;1966;49.908;9.156;2024-02-21T15:24:42;7.60;;;3.40;;
3901;SDS011;1966;49.908;9.156;2024-02-21T15:29:44;6.43;;;3.00;;
3901;SDS011;1966;49.908;9.156;2024-02-21T15:34:45;6.73;;;2.80;;
3901;SDS011;1966;49.908;9.156;2024-02-21T15:39:44;4.80;;;2.77;;
3901;SDS011;1966;49.908;9.156;2024-02-21T15:44:43;5.80;;;3.47;;
3901;SDS011;1966;49.908;9.156;2024-02-21T15:49:42;8.40;;;5.50;;
3901;SDS011;1966;49.908;9.156;2024-02-21T15:54:43;17.13;;;8.70;;
3901;SDS011;1966;49.908;9.156;2024-02-21T15:59:42;6.57;;;4.10;;
3901;SDS011;1966;49.908;9.156;2024-02-21T16:04:42;4.50;;;3.20;;
3901;SDS011;1966;49.908;9.156;2024-02-21T16:09:41;6.17;;;3.07;;
3901;SDS011;1966;49.908;9.156;2024-02-21T16:14:43;6.53;;;3.63;;
3901;SDS011;1966;49.908;9.156;2024-02-21T16:19:45;5.27;;;2.80;;
3901;SDS011;1966;49.908;9.156;2024-02-21T16:24:45;5.23;;;3.10;;
3901;SDS011;1966;49.908;9.156;2024-02-21T16:29:48;6.07;;;3.20;;
3901;SDS011;1966;49.908;9.156;2024-02-21T16:34:47;7.03;;;4.60;;
3901;SDS011;1966;49.908;9.156;2024-02-21T16:39:46;7.40;;;4.33;;
3901;SDS011;1966;49.908;9.156;2024-02-21T16:44:47;9.67;;;6.50;;
3901;SDS011;1966;49.908;9.156;2024-02-21T16:49:48;8.67;;;5.23;;
3901;SDS011;1966;49.908;9.156;2024-02-21T16:54:47;12.40;;;5.20;;
3901;SDS011;1966;49.908;9.156;2024-02-21T16:59:48;12.03;;;4.90;;
3901;SDS011;1966;49.908;9.156;2024-02-21T17:04:47;6.43;;;3.80;;
3901;SDS011;1966;49.908;9.156;2024-02-21T17:09:47;5.47;;;3.87;;
3901;SDS011;1966;49.908;9.156;2024-02-21T17:14:48;4.83;;;3.10;;
3901;SDS011;1966;49.908;9.156;2024-02-21T17:19:47;11.77;;;4.70;;
3901;SDS011;1966;49.908;9.156;2024-02-21T17:24:46;8.40;;;2.90;;
3901;SDS011;1966;49.908;9.156;2024-02-21T17:29:47;3.20;;;2.20;;
3901;SDS011;1966;49.908;9.156;2024-02-21T17:34:46;4.03;;;2.60;;
3901;SDS011;1966;49.908;9.156;2024-02-21T17:39:46;4.97;;;2.90;;
3901;SDS011;1966;49.908;9.156;2024-02-21T17:44:45;3.20;;;2.20;;
3901;SDS011;1966;49.908;9.156;2024-02-21T17:49:47;4.20;;;3.50;;
3901;SDS011;1966;49.908;9.156;2024-02-21T17:54:46;4.40;;;3.30;;
3901;SDS011;1966;49.908;9.156;2024-02-21T17:59:45;5.03;;;4.50;;
3901;SDS011;1966;49.908;9.156;2024-02-21T18:04:46;6.90;;;4.40;;
3901;SDS011;1966;49.908;9.156;2024-02-21T18:09:46;5.93;;;4.57;;
3901;SDS011;1966;49.908;9.156;2024-02-21T18:14:45;9.63;;;7.07;;
3901;SDS011;1966;49.908;9.156;2024-02-21T18:19:44;10.57;;;6.30;;
3901;SDS011;1966;49.908;9.156;2024-02-21T18:24:45;10.67;;;7.40;;
3901;SDS011;1966;49.908;9.156;2024-02-21T18:29:44;15.00;;;7.93;;
3901;SDS011;1966;49.908;9.156;2024-02-21T18:34:44;10.60;;;6.63;;
3901;SDS011;1966;49.908;9.156;2024-02-21T18:39:43;11.30;;;6.20;;
3901;SDS011;1966;49.908;9.156;2024-02-21T18:44:43;9.27;;;5.53;;
3901;SDS011;1966;49.908;9.156;2024-02-21T18:49:44;9.30;;;5.87;;
3901;SDS011;1966;49.908;9.156;2024-02-21T18:54:43;11.13;;;6.60;;
3901;SDS011;1966;49.908;9.156;2024-02-21T18:59:45;13.47;;;6.20;;
3901;SDS011;1966;49.908;9.156;2024-02-21T19:04:45;8.13;;;5.40;;
3901;SDS011;1966;49.908;9.156;2024-02-21T19:09:45;21.10;;;15.80;;
3901;SDS011;1966;49.908;9.156;2024-02-21T19:14:45;17.10;;;10.40;;
3901;SDS011;1966;49.908;9.156;2024-02-21T19:19:44;16.93;;;10.10;;
3901;SDS011;1966;49.908;9.156;2024-02-21T19:24:45;14.20;;;7.50;;
3901;SDS011;1966;49.908;9.156;2024-02-21T19:29:46;16.53;;;7.30;;
3901;SDS011;1966;49.908;9.156;2024-02-21T19:34:45;12.00;;;6.50;;
3901;SDS011;1966;49.908;9.156;2024-02-21T19:39:44;9.03;;;5.90;;
3901;SDS011;1966;49.908;9.156;2024-02-21T19:44:43;10.20;;;5.50;;
3901;SDS011;1966;49.908;9.156;2024-02-21T19:49:44;9.73;;;4.93;;
3901;SDS011;1966;49.908;9.156;2024-02-21T19:54:43;6.90;;;4.43;;
3901;SDS011;1966;49.908;9.156;2024-02-21T19:59:43;6.53;;;4.60;;
3901;SDS011;1966;49.908;9.156;2024-02-21T20:04:42;7.20;;;4.53;;
3901;SDS011;1966;49.908;9.156;2024-02-21T20:09:42;12.83;;;5.40;;
3901;SDS011;1966;49.908;9.156;2024-02-21T20:14:42;8.73;;;5.40;;
3901;SDS011;1966;49.908;9.156;2024-02-21T20:19:41;9.70;;;4.60;;
3901;SDS011;1966;49.908;9.156;2024-02-21T20:24:41;6.53;;;3.87;;
3901;SDS011;1966;49.908;9.156;2024-02-21T20:29:41;6.50;;;3.80;;
3901;SDS011;1966;49.908;9.156;2024-02-21T20:34:40;7.40;;;4.33;;
3901;SDS011;1966;49.908;9.156;2024-02-21T20:39:40;4.97;;;2.80;;
3901;SDS011;1966;49.908;9.156;2024-02-21T20:44:39;5.40;;;3.13;;
3901;SDS011;1966;49.908;9.156;2024-02-21T20:49:39;7.03;;;2.73;;
3901;SDS011;1966;49.908;9.156;2024-02-21T20:54:39;4.07;;;3.03;;
3901;SDS011;1966;49.908;9.156;2024-02-21T20:59:38;2.80;;;2.37;;
3901;SDS011;1966;49.908;9.156;2024-02-21T21:04:39;2.27;;;1.80;;
3901;SDS011;1966;49.908;9.156;2024-02-21T21:09:39;4.30;;;2.10;;
3901;SDS011;1966;49.908;9.156;2024-02-21T21:14:39;3.27;;;2.37;;
3901;SDS011;1966;49.908;9.156;2024-02-21T21:19:40;3.40;;;2.30;;
3901;SDS011;1966;49.908;9.156;2024-02-21T21:24:39;4.03;;;2.00;;
3901;SDS011;1966;49.908;9.156;2024-02-21T21:29:39;2.23;;;2.03;;
3901;SDS011;1966;49.908;9.156;2024-02-21T21:34:38;2.60;;;2.00;;
3901;SDS011;1966;49.908;9.156;2024-02-21T21:39:39;2.40;;;2.00;;
3901;SDS011;1966;49.908;9.156;2024-02-21T21:44:39;3.83;;;2.50;;
3901;SDS011;1966;49.908;9.156;2024-02-21T21:49:39;2.20;;;2.00;;
3901;SDS011;1966;49.908;9.156;2024-02-21T21:54:39;3.43;;;2.20;;
3901;SDS011;1966;49.908;9.156;2024-02-21T21:59:39;3.93;;;2.30;;
3901;SDS011;1966;49.908;9.156;2024-02-21T22:04:38;3.80;;;2.20;;
3901;SDS011;1966;49.908;9.156;2024-02-21T22:09:39;2.83;;;2.30;;
3901;SDS011;1966;49.908;9.156;2024-02-21T22:14:38;4.33;;;2.40;;
3901;SDS011;1966;49.908;9.156;2024-02-21T22:19:38;2.37;;;2.17;;
3901;SDS011;1966;49.908;9.156;2024-02-21T22:24:37;3.80;;;2.40;;
3901;SDS011;1966;49.908;9.156;2024-02-21T22:29:38;2.50;;;2.30;;
3901;SDS011;1966;49.908;9.156;2024-02-21T22:34:37;4.07;;;2.50;;
3901;SDS011;1966;49.908;9.156;2024-02-21T22:39:37;4.00;;;2.50;;
3901;SDS011;1966;49.908;9.156;2024-02-21T22:44:41;3.27;;;2.70;;
3901;SDS011;1966;49.908;9.156;2024-02-21T22:49:40;2.57;;;2.30;;
3901;SDS011;1966;49.908;9.156;2024-02-21T22:54:40;5.73;;;2.60;;
3901;SDS011;1966;49.908;9.156;2024-02-21T22:59:41;4.80;;;2.80;;
3901;SDS011;1966;49.908;9.156;2024-02-21T23:04:41;2.43;;;2.23;;
3901;SDS011;1966;49.908;9.156;2024-02-21T23:09:41;3.50;;;2.73;;
3901;SDS011;1966;49.908;9.156;2024-02-21T23:14:42;3.60;;;2.60;;
3901;SDS011;1966;49.908;9.156;2024-02-21T23:19:41;3.47;;;2.90;;
3901;SDS011;1966;49.908;9.156;2024-02-21T23:24:40;4.00;;;2.67;;
3901;SDS011;1966;49.908;9.156;2024-02-21T23:29:41;4.53;;;3.43;;
3901;SDS011;1966;49.908;9.156;2024-02-21T23:34:41;4.83;;;3.77;;
3901;SDS011;1966;49.908;9.156;2024-02-21T23:39:40;4.90;;;2.93;;
3901;SDS011;1966;49.908;9.156;2024-02-21T23:44:39;2.73;;;2.53;;
3901;SDS011;1966;49.908;9.156;2024-02-21T23:49:41;3.70;;;3.00;;
3901;SDS011;1966;49.908;9.156;2024-02-21T23:54:40;5.10;;;3.03;;
3901;SDS011;1966;49.908;9.156;2024-02-21T23:59:40;4.17;;;2.83;;
